• Join FlightAware (Why Join?)
  • Login
  • US Flag 
03:31AM EDT


 

Airport Tracker/Info


-or-


 

Live Flight TrackerFlight Track Log ✈ DAL1981 ✈ 14-May-2013 ✈ KALB - KATL

Flight Track Log - Related Links

Times and Time Zones

All times are in EDT time to prevent confusion due to time zone crossing. See the DAL1981 flight status page for this flight to view local times or setup timezone preferences in your user account.

Time Position Orientation Groundspeed Altitude Reporting Facility
EDT Latitude Longitude Course Direction KTS MPH feet Rate Location/Type
06:12AM 42.7631 -73.8061 180° South 163 188 1,500  Level Boston Center
06:13AM 42.7964 -73.8153 349° North 184 212 3,800 3,300 Climbing Boston Center
06:15AM 42.4887 -74.1658 200° South  Level Estimated
06:15AM 42.8594 -73.9300 307° West 205 236 10,400  Level Boston Center
06:16AM 42.4016 -74.2864 198° South  Level Estimated
06:16AM 42.8814 -74.0042 292° West 196 226 13,500  Level Boston Center
06:17AM 42.3145 -74.4067 180° South  Level Estimated
06:17AM 42.8186 -74.0253 194° South 168 193 14,800  Level Boston Center
06:18AM 42.7228 -74.0283 181° South 251 289 16,500 2,460 Climbing Boston Center
06:19AM 42.6061 -74.0311 181° South 336 387 19,800 2,700 Climbing Boston Center
06:20AM 42.5081 -74.0314 180° South 366 421 22,000 1,740 Climbing Boston Center
06:21AM 42.3892 -74.0311 180° South 403 464 23,300 1,320 Climbing Boston Center
06:22AM 42.2578 -74.0361 182° South 448 516 24,700 1,500 Climbing Boston Center
06:23AM 42.1244 -74.0411 182° South 477 549 26,700 1,860 Climbing Boston Center
06:24AM 41.9636 -74.0706 188° South 489 563 28,800 1,800 Climbing Boston Center
06:25AM 41.8317 -74.1061 191° South 489 563 30,300 1,620 Climbing Boston Center
06:26AM 41.6311 -74.1764 195° South 505 581 33,100 1,380 Climbing New York Center
06:27AM 41.5222 -74.2622 211° Southwest 475 547 34,000 420 Climbing New York Center
06:28AM 41.4072 -74.3503 210° Southwest 469 540 34,000  Level New York Center
06:29AM 41.2942 -74.4381 210° Southwest 475 547 34,100 780 Climbing New York Center
06:30AM 41.1833 -74.5231 210° Southwest 475 547 35,600 900 Climbing New York Center
06:31AM 41.0761 -74.6106 212° Southwest 465 535 36,000 180 Climbing New York Center
06:32AM 40.9672 -74.6925 210° Southwest 465 535 36,000  Level New York Center
06:33AM 40.8558 -74.7875 213° Southwest 465 535 36,000  Level New York Center
06:34AM 40.7486 -74.8717 211° Southwest 465 535 36,000  Level New York Center
06:35AM 40.6394 -74.9608 212° Southwest 465 535 36,000  Level New York Center
06:36AM 40.5378 -75.0611 217° Southwest 460 529 36,000  Level New York Center
06:37AM 40.4581 -75.1869 230° Southwest 447 514 36,000  Level New York Center
06:38AM 40.3764 -75.3125 230° Southwest 455 524 36,000  Level New York Center
06:39AM 40.3003 -75.4408 232° Southwest 460 529 36,000  Level New York Center
06:40AM 40.2206 -75.5633 230° Southwest 455 524 36,000  Level New York Center
06:41AM 40.1381 -75.6881 229° Southwest 455 524 36,000  Level New York Center
06:42AM 40.0603 -75.8047 229° Southwest 455 524 36,000  Level New York Center
06:43AM 39.9819 -75.9264 230° Southwest 450 518 36,000  Level New York Center
06:46AM 39.7850 -76.2125 228° Southwest 445 512 36,000  Level Washington Center
06:47AM 39.7050 -76.3386 231° Southwest 450 518 36,000  Level Washington Center
06:48AM 39.6189 -76.4617 228° Southwest 450 518 36,000  Level Washington Center
06:49AM 39.5303 -76.5817 226° Southwest 455 524 36,000  Level Washington Center
06:50AM 39.4458 -76.7042 228° Southwest 466 536 36,000  Level Washington Center
06:51AM 39.3614 -76.8264 228° Southwest 466 536 36,000  Level Washington Center
06:52AM 39.2808 -76.9483 230° Southwest 461 531 36,000  Level Washington Center
06:53AM 39.1961 -77.0725 229° Southwest 461 531 36,000  Level Washington Center
06:54AM 39.1092 -77.1967 228° Southwest 461 531 36,000  Level Washington Center
06:55AM 39.0239 -77.3203 228° Southwest 461 531 36,000  Level Washington Center
06:56AM 38.9367 -77.4411 227° Southwest 466 536 36,000  Level Washington Center
06:57AM 38.8619 -77.5483 228° Southwest 460 529 36,000  Level Washington Center
06:58AM 38.7700 -77.6844 229° Southwest 465 535 36,000  Level Washington Center
06:59AM 38.6803 -77.8069 227° Southwest 471 542 36,000  Level Washington Center
07:00AM 38.6008 -77.9347 232° Southwest 471 542 36,000  Level Washington Center
07:01AM 38.5231 -78.0650 233° Southwest 471 542 36,000  Level Washington Center
07:02AM 38.4475 -78.1950 233° Southwest 466 536 36,000  Level Washington Center
07:03AM 38.3694 -78.3272 233° Southwest 471 542 36,000  Level Washington Center
07:04AM 38.2933 -78.4569 233° Southwest 471 542 36,000  Level Washington Center
07:05AM 38.2300 -78.5733 235° Southwest 471 542 36,000  Level Washington Center
07:06AM 38.1517 -78.7022 232° Southwest 471 542 36,000  Level Washington Center
07:07AM 38.0733 -78.8308 232° Southwest 471 542 36,000  Level Washington Center
07:08AM 37.9944 -78.9619 233° Southwest 471 542 36,000  Level Washington Center
07:09AM 37.9072 -79.1028 232° Southwest 471 542 36,000  Level Washington Center
07:10AM 37.8200 -79.2250 228° Southwest 476 548 36,000  Level Washington Center
07:11AM 37.7308 -79.3467 227° Southwest 476 548 36,000  Level Washington Center
07:12AM 37.6522 -79.4556 228° Southwest 481 554 36,000  Level Washington Center
07:13AM 37.5539 -79.5867 227° Southwest 475 547 36,000  Level Washington Center
07:15AM 37.3789 -79.8292 228° Southwest 479 551 36,000  Level Atlanta Center
07:16AM 37.2911 -79.9458 227° Southwest 472 543 36,000  Level Atlanta Center
07:17AM 37.2033 -80.0653 227° Southwest 472 543 36,000  Level Atlanta Center
07:18AM 37.1233 -80.1733 227° Southwest 466 536 36,000  Level Atlanta Center
07:19AM 37.0372 -80.2867 226° Southwest 461 531 36,000  Level Atlanta Center
07:20AM 36.9511 -80.4050 228° Southwest 461 531 36,000  Level Atlanta Center
07:21AM 36.8628 -80.5208 226° Southwest 461 531 36,000  Level Atlanta Center
07:22AM 36.7664 -80.6494 227° Southwest 461 531 36,000  Level Atlanta Center
07:23AM 36.6919 -80.7483 227° Southwest 454 522 36,000  Level Atlanta Center
07:24AM 36.6075 -80.8656 228° Southwest 454 522 36,000  Level Atlanta Center
07:25AM 36.5186 -80.9775 225° Southwest 459 528 36,000  Level Atlanta Center
07:26AM 36.4236 -81.1050 227° Southwest 459 528 36,000  Level Atlanta Center
07:27AM 36.3367 -81.2217 227° Southwest 459 528 36,000  Level Atlanta Center
07:28AM 36.2494 -81.3328 226° Southwest 459 528 36,000  Level Atlanta Center
07:29AM 36.1622 -81.4489 227° Southwest 459 528 36,000  Level Atlanta Center
07:30AM 36.0769 -81.5622 227° Southwest 459 528 36,000 -300 Level Atlanta Center
07:31AM 35.9897 -81.6753 226° Southwest 454 522 35,500 -540 Descending Atlanta Center
07:32AM 35.9019 -81.7881 226° Southwest 460 529 35,000 -300 Descending Atlanta Center
07:33AM 35.8144 -81.9006 226° Southwest 460 529 35,000  Level Atlanta Center
07:34AM 35.7286 -82.0128 227° Southwest 460 529 35,000  Level Atlanta Center
07:35AM 35.6406 -82.1222 225° Southwest 455 524 35,000  Level Atlanta Center
07:36AM 35.5528 -82.2342 226° Southwest 461 531 35,000 -300 Level Atlanta Center
07:37AM 35.4644 -82.3406 224° Southwest 456 525 34,400 -600 Descending Atlanta Center
07:38AM 35.3719 -82.4469 223° Southwest 456 525 33,800 -660 Descending Atlanta Center
07:39AM 35.2772 -82.5481 221° Southwest 455 524 33,100 -420 Descending Atlanta Center
07:40AM 35.1950 -82.6383 222° Southwest 460 529 33,000 -60 Descending Atlanta Center
07:41AM 35.1022 -82.7414 222° Southwest 454 522 33,000 -300 Level Atlanta Center
07:42AM 35.0053 -82.8469 222° Southwest 460 529 32,400 -1,200 Descending Atlanta Center
07:43AM 34.9122 -82.9469 221° Southwest 460 529 30,600 -1,380 Descending Atlanta Center
07:44AM 34.8192 -83.0544 223° Southwest 465 535 29,700 -1,680 Descending Atlanta Center
07:45AM 34.7219 -83.1567 221° Southwest 460 529 27,300 -2,700 Descending Atlanta Center
07:46AM 34.6225 -83.2689 223° Southwest 460 529 24,400 -2,580 Descending Atlanta Center
07:47AM 34.5311 -83.3656 221° Southwest 455 524 22,200 -2,400 Descending Atlanta Center
07:48AM 34.4461 -83.4569 222° Southwest 434 499 19,600 -2,340 Descending Atlanta Center
07:49AM 34.3650 -83.5431 221° Southwest 413 475 17,600 -2,400 Descending Atlanta Center
07:50AM 34.2842 -83.6314 222° Southwest 391 450 14,900 -2,400 Descending Atlanta Center
07:51AM 34.2072 -83.7172 223° Southwest 385 443 12,800 -1,500 Descending Atlanta Center
07:52AM 34.1300 -83.7953 220° Southwest 379 436 12,000 -420 Descending Atlanta Center
07:53AM 34.0633 -83.8708 223° Southwest 349 402 12,000 -300 Level Atlanta Center
07:53AM 34.0333 -83.9000 219° Southwest 306 352 11,600 -900 Descending Atlanta TRACON
07:54AM 33.9667 -83.9500 212° Southwest 313 360 10,800 -1,200 Descending Atlanta TRACON
07:55AM 33.8833 -83.9667 189° South 312 359 9,400 -1,140 Descending Atlanta TRACON
07:56AM 33.8381 -83.9714 185° South 306 352 9,000 -960 Descending Atlanta Center
07:58AM 33.6794 -83.9939 187° South 296 341 7,000 -840 Descending Atlanta Center
07:59AM 33.6314 -84.0561 227° Southwest 249 287 6,600 -840 Descending Atlanta Center
08:00AM 33.6333 -84.1333 272° West 219 252 5,300 -1,080 Descending Atlanta TRACON
08:01AM 33.6333 -84.2167 270° West 214 246 4,400 -900 Descending Atlanta TRACON